KBBB

Details ICAO KBBB
Name BENSON MUNI
Region United States
Timezone America/Chicago (UTC-5.0)
Plans Departing 0
Arriving 1
Stats Elevation 1,039 ft / 317 m (AMSL)
Location 45.331930° -95.650567°
Runways 1
Magnetic Variation 2.077° E
Sunrise 2018-05-27 10:42:36 UTC / 2018-05-27 05:42:36 Local
Sunset 2018-05-28 01:59:51 UTC / 2018-05-27 20:59:51 Local
Advertisement - Login to hide

Runways

ID Width Length Bearing (true) Bearing (mag) Surface Threshold Offset Overrun Length
14 75 ft / 23 m 4,000 ft / 1,219 m 143.61° 141.53° Asphalt 0 ft / 0 m 0 ft / 0 m
32 75 ft / 23 m 4,000 ft / 1,219 m 323.61° 321.53° Asphalt 0 ft / 0 m 0 ft / 0 m

Map

Weather


0- 5 10 15 20 25 30 35+ Temperature / ° C

Clouds and Precipitation
Forecast for 2018-05-27 18:00 UTC. Updated 3 hours ago

Ground ~20,000 ft ~40,000 ft Winds

METAR

KBBB 271955Z AUTO 16012G15KT 10SM CLR 31/14 A2981 RMK AO2

TAF

Not found

Frequencies

Unicom 122.80 MHz CTAF/UNICOM
Warning: Do not use this data for real-world aviation or navigation. No guarantee of current accuracy is given.